createdAt,value
2023-05-10T00:01:04.492Z,51.26
2023-05-10T00:03:34.064Z,51.40
2023-05-10T00:06:02.244Z,51.57
2023-05-10T00:08:30.288Z,52.05
2023-05-10T00:10:58.367Z,51.90
2023-05-10T00:13:26.625Z,52.31
2023-05-10T00:15:54.913Z,52.24
2023-05-10T00:18:22.998Z,52.25
2023-05-10T00:20:52.629Z,52.43
2023-05-10T00:23:20.682Z,52.58
2023-05-10T00:25:48.735Z,52.36
2023-05-10T00:28:16.836Z,52.57
2023-05-10T00:30:44.916Z,52.86
2023-05-10T00:33:13.563Z,52.57
2023-05-10T00:35:41.725Z,52.61
2023-05-10T00:38:11.166Z,52.67
2023-05-10T00:40:39.333Z,53.00
2023-05-10T00:43:07.452Z,53.20
2023-05-10T00:45:37.317Z,53.13
2023-05-10T00:48:05.952Z,53.31
2023-05-10T00:50:34.795Z,53.33
2023-05-10T00:53:03.082Z,53.64
2023-05-10T00:55:33.134Z,53.36
2023-05-10T00:58:01.358Z,53.48
2023-05-10T01:00:30.638Z,53.63
2023-05-10T01:02:59.067Z,53.89
2023-05-10T01:05:28.366Z,54.04
2023-05-10T01:07:56.421Z,54.24
2023-05-10T01:10:24.637Z,54.17
2023-05-10T01:12:54.396Z,54.39
2023-05-10T01:15:22.794Z,54.43
2023-05-10T01:17:51.011Z,54.82
2023-05-10T01:20:19.334Z,54.67
2023-05-10T01:23:20.828Z,54.90
2023-05-10T01:26:14.002Z,54.84
2023-05-10T01:29:00.343Z,54.88
2023-05-10T01:31:40.730Z,54.90
2023-05-10T01:34:11.755Z,54.80
2023-05-10T01:36:45.682Z,55.29
2023-05-10T01:39:18.311Z,55.29
2023-05-10T01:41:50.044Z,55.28
2023-05-10T01:44:23.427Z,55.26
2023-05-10T01:46:55.315Z,55.40
2023-05-10T01:49:28.510Z,55.25
2023-05-10T01:52:01.541Z,55.49
2023-05-10T01:54:30.891Z,55.45
2023-05-10T01:57:04.109Z,55.42
2023-05-10T01:59:37.227Z,55.27
2023-05-10T02:02:07.005Z,55.45
2023-05-10T02:04:37.389Z,55.67
2023-05-10T02:07:06.103Z,55.60
2023-05-10T02:09:35.078Z,55.49
2023-05-10T02:12:05.940Z,55.69
2023-05-10T02:14:37.246Z,55.85
2023-05-10T02:17:07.644Z,55.62
2023-05-10T02:19:38.884Z,55.78
2023-05-10T02:22:07.823Z,55.96
2023-05-10T02:24:36.978Z,55.90
2023-05-10T02:27:06.602Z,55.95
2023-05-10T02:29:35.515Z,55.68
2023-05-10T02:32:04.560Z,55.96
2023-05-10T02:34:33.378Z,56.12
2023-05-10T02:37:04.233Z,56.40
2023-05-10T02:39:33.831Z,56.36
2023-05-10T02:42:02.626Z,56.49
2023-05-10T02:44:32.132Z,56.50
2023-05-10T02:47:00.929Z,56.69
2023-05-10T02:49:29.018Z,56.81
2023-05-10T02:52:02.207Z,56.78
2023-05-10T02:54:35.278Z,57.08
2023-05-10T02:57:06.231Z,57.19
2023-05-10T02:59:34.631Z,57.15
2023-05-10T03:02:03.303Z,57.24
2023-05-10T03:04:31.469Z,57.38
2023-05-10T03:07:00.163Z,57.59
2023-05-10T03:09:28.398Z,57.56
2023-05-10T03:12:03.723Z,57.80
2023-05-10T03:14:39.119Z,58.11
2023-05-10T03:17:13.484Z,58.19
2023-05-10T03:19:46.022Z,58.24
2023-05-10T03:22:15.278Z,58.18
2023-05-10T03:24:44.284Z,58.18
2023-05-10T03:27:13.947Z,58.50
2023-05-10T03:29:42.283Z,58.69
2023-05-10T03:32:10.412Z,58.81
2023-05-10T03:34:43.629Z,59.09
2023-05-10T03:37:11.719Z,59.01
2023-05-10T03:39:39.837Z,59.12
2023-05-10T03:42:08.136Z,59.18
2023-05-10T03:44:38.197Z,59.38
2023-05-10T03:47:06.394Z,59.68
2023-05-10T03:49:34.569Z,59.58
2023-05-10T03:52:02.670Z,59.56
2023-05-10T03:54:30.795Z,59.69
2023-05-10T03:56:58.882Z,59.88
2023-05-10T03:59:26.987Z,59.86
2023-05-10T04:01:56.482Z,59.96
2023-05-10T04:04:24.778Z,60.15
2023-05-10T04:06:52.838Z,60.24
2023-05-10T04:09:20.952Z,60.29
2023-05-10T04:11:49.034Z,60.20
2023-05-10T04:14:17.493Z,60.13
2023-05-10T04:16:45.983Z,60.45
2023-05-10T04:19:15.534Z,60.34
2023-05-10T04:21:43.606Z,60.18
2023-05-10T04:24:13.090Z,60.09
2023-05-10T04:26:41.636Z,60.14
2023-05-10T04:29:09.724Z,60.39
2023-05-10T04:31:38.264Z,60.56
2023-05-10T04:34:06.345Z,60.34
2023-05-10T04:36:36.793Z,60.22
2023-05-10T04:39:05.207Z,60.06
2023-05-10T04:41:33.492Z,60.13
2023-05-10T04:44:01.548Z,59.73
2023-05-10T04:46:29.650Z,59.74
2023-05-10T04:48:57.827Z,59.69
2023-05-10T04:51:25.938Z,59.39
2023-05-10T04:54:05.397Z,59.34
2023-05-10T04:56:34.933Z,59.12
2023-05-10T04:59:03.609Z,59.04
2023-05-10T05:01:31.790Z,59.36
2023-05-10T05:04:00.320Z,59.25
2023-05-10T05:06:28.653Z,59.09
2023-05-10T05:08:58.100Z,59.08
2023-05-10T05:11:26.447Z,59.05
2023-05-10T05:13:54.626Z,58.97
2023-05-10T05:16:22.798Z,59.24
2023-05-10T05:18:50.928Z,58.80
2023-05-10T05:21:19.634Z,58.71
2023-05-10T05:23:48.058Z,58.32
2023-05-10T05:26:17.610Z,57.99
2023-05-10T05:28:45.711Z,57.39
2023-05-10T05:31:14.903Z,56.96
2023-05-10T05:33:43.090Z,56.79
2023-05-10T05:36:11.409Z,56.13
2023-05-10T05:38:39.603Z,55.11
2023-05-10T05:41:07.691Z,54.23
2023-05-10T05:43:38.498Z,53.92
2023-05-10T05:46:07.010Z,53.54
2023-05-10T05:48:35.148Z,53.75
2023-05-10T05:51:04.679Z,53.78
2023-05-10T05:53:34.639Z,53.69
2023-05-10T05:56:02.842Z,53.78
2023-05-10T05:58:30.892Z,53.53
2023-05-10T06:01:00.352Z,53.34
2023-05-10T06:03:28.504Z,53.20
2023-05-10T06:05:56.648Z,53.05
2023-05-10T06:08:24.713Z,53.24
2023-05-10T06:10:52.785Z,53.56
2023-05-10T06:13:20.880Z,53.39
2023-05-10T06:15:48.998Z,53.53
2023-05-10T06:18:18.458Z,53.28
2023-05-10T06:20:46.523Z,53.33
2023-05-10T06:23:14.582Z,53.34
2023-05-10T06:25:42.744Z,52.93
2023-05-10T06:28:10.787Z,52.76
2023-05-10T06:30:39.122Z,53.01
2023-05-10T06:33:07.254Z,51.85
2023-05-10T06:35:37.763Z,50.74
2023-05-10T06:38:05.970Z,50.92
2023-05-10T06:40:34.091Z,50.60
2023-05-10T06:43:02.264Z,50.24
2023-05-10T06:45:30.340Z,49.34
2023-05-10T06:47:58.458Z,48.92
2023-05-10T06:50:26.762Z,48.62
2023-05-10T06:52:56.468Z,49.11
2023-05-10T06:55:24.657Z,49.71
2023-05-10T06:57:52.809Z,48.81
2023-05-10T07:00:21.744Z,48.20
2023-05-10T07:02:50.093Z,48.18
2023-05-10T07:05:18.732Z,47.96
2023-05-10T07:07:47.084Z,48.54
2023-05-10T07:10:16.697Z,48.44
2023-05-10T07:12:44.798Z,48.25
2023-05-10T07:15:13.680Z,47.59
2023-05-10T07:17:43.204Z,47.27
2023-05-10T07:20:14.023Z,46.62
2023-05-10T07:22:42.085Z,46.60
2023-05-10T07:25:10.479Z,46.42
2023-05-10T07:27:39.918Z,46.06
2023-05-10T07:30:09.397Z,46.25
2023-05-10T07:32:37.552Z,46.41
2023-05-10T07:35:06.535Z,46.45
2023-05-10T07:37:34.628Z,46.48
2023-05-10T07:40:03.038Z,46.57
2023-05-10T07:42:31.137Z,46.89
2023-05-10T07:45:02.582Z,46.50
2023-05-10T07:47:30.633Z,47.13
2023-05-10T07:49:58.792Z,46.66
2023-05-10T07:52:26.979Z,46.19
2023-05-10T07:54:55.711Z,45.59
2023-05-10T07:57:23.792Z,45.52
2023-05-10T07:59:51.868Z,45.14
2023-05-10T08:02:21.353Z,45.03
2023-05-10T08:04:49.481Z,45.87
2023-05-10T08:07:17.685Z,44.82
2023-05-10T08:09:45.782Z,44.75
2023-05-10T08:12:13.846Z,45.16
2023-05-10T08:14:41.924Z,45.70
2023-05-10T08:17:10.929Z,45.39
2023-05-10T08:19:40.573Z,45.66
2023-05-10T08:22:08.668Z,45.48
2023-05-10T08:24:39.329Z,44.88
2023-05-10T08:27:07.646Z,45.25
2023-05-10T08:29:49.014Z,44.72
2023-05-10T08:32:17.999Z,44.33
2023-05-10T08:34:47.502Z,45.06
2023-05-10T08:37:15.710Z,44.71
2023-05-10T08:39:43.800Z,43.95
2023-05-10T08:42:11.926Z,43.27
2023-05-10T08:44:40.106Z,43.27
2023-05-10T08:47:08.943Z,43.39
2023-05-10T08:49:37.331Z,43.94
2023-05-10T08:52:08.325Z,44.54
2023-05-10T08:54:36.602Z,43.91
2023-05-10T08:57:05.051Z,43.15
2023-05-10T08:59:34.123Z,42.73
2023-05-10T09:02:02.571Z,42.76
2023-05-10T09:04:31.499Z,42.33
2023-05-10T09:06:59.887Z,42.33
2023-05-10T09:09:29.530Z,42.16
2023-05-10T09:11:57.663Z,41.92
2023-05-10T09:14:26.765Z,42.67
2023-05-10T09:16:56.307Z,42.86
2023-05-10T09:19:24.472Z,42.82
2023-05-10T09:21:52.617Z,43.27
2023-05-10T09:24:20.784Z,42.30
2023-05-10T09:26:50.818Z,42.06
2023-05-10T09:29:18.944Z,41.60
2023-05-10T09:31:49.128Z,41.70
2023-05-10T09:34:22.093Z,42.47
2023-05-10T09:36:57.554Z,43.13
2023-05-10T09:39:33.922Z,43.46
2023-05-10T09:42:05.764Z,43.12
2023-05-10T09:44:34.642Z,42.39
2023-05-10T09:47:03.438Z,42.87
2023-05-10T09:49:32.007Z,42.28
2023-05-10T09:52:03.474Z,42.51
2023-05-10T09:54:31.840Z,41.94
2023-05-10T09:56:59.951Z,41.92
2023-05-10T09:59:30.035Z,42.09
2023-05-10T10:01:58.839Z,40.93
2023-05-10T10:04:28.167Z,40.04
2023-05-10T10:07:04.484Z,40.09
2023-05-10T10:09:33.063Z,40.15
2023-05-10T10:12:01.524Z,39.64
2023-05-10T10:14:31.361Z,39.14
2023-05-10T10:19:34.857Z,38.97
2023-05-10T10:22:03.168Z,39.36
2023-05-10T10:24:31.227Z,39.42
2023-05-10T10:27:05.365Z,39.27
2023-05-10T10:29:39.132Z,39.66
2023-05-10T10:32:13.932Z,39.97
2023-05-10T10:34:42.181Z,41.84
2023-05-10T10:37:10.667Z,41.72
2023-05-10T10:39:38.750Z,41.35
2023-05-10T10:42:06.979Z,41.61
2023-05-10T10:44:41.286Z,41.81
2023-05-10T10:47:25.876Z,41.93
2023-05-10T10:50:04.471Z,41.66
2023-05-10T10:52:36.422Z,41.46
2023-05-10T10:55:09.489Z,41.17
2023-05-10T10:57:49.472Z,41.53
2023-05-10T11:00:27.524Z,42.18
2023-05-10T11:02:58.073Z,42.28
2023-05-10T11:05:44.712Z,42.58
2023-05-10T11:08:20.729Z,42.97
2023-05-10T11:10:53.918Z,43.49
2023-05-10T11:13:32.406Z,44.55
2023-05-10T11:16:12.190Z,45.15
2023-05-10T11:18:40.436Z,44.81
2023-05-10T11:21:11.642Z,44.68
2023-05-10T11:24:01.154Z,45.07
2023-05-10T11:26:33.892Z,44.71
2023-05-10T11:29:03.207Z,44.63
2023-05-10T11:31:32.720Z,44.65
2023-05-10T11:34:02.667Z,43.96
2023-05-10T11:36:34.272Z,44.23
2023-05-10T11:39:02.393Z,44.16
2023-05-10T11:41:31.982Z,44.29
2023-05-10T11:44:00.835Z,44.68
2023-05-10T11:46:30.465Z,44.72
2023-05-10T11:49:05.132Z,44.42
2023-05-10T11:51:36.776Z,44.02
2023-05-10T11:54:08.618Z,44.87
2023-05-10T11:56:36.752Z,45.14
2023-05-10T11:59:05.925Z,46.17
2023-05-10T12:01:34.742Z,45.81
2023-05-10T12:04:04.599Z,45.76
2023-05-10T12:06:34.912Z,46.74
2023-05-10T12:09:07.850Z,47.64
2023-05-10T12:11:44.068Z,48.83
2023-05-10T12:14:12.773Z,50.11
2023-05-10T12:16:40.964Z,50.66
2023-05-10T12:19:10.534Z,51.88
2023-05-10T12:21:39.880Z,52.92
2023-05-10T12:24:09.457Z,54.51
2023-05-10T12:26:37.829Z,55.73
2023-05-10T12:29:16.625Z,57.25
2023-05-10T12:31:58.375Z,58.64
2023-05-10T12:34:29.166Z,60.37
2023-05-10T12:36:57.586Z,61.50
2023-05-10T12:39:25.894Z,62.38
2023-05-10T12:41:54.156Z,63.26
2023-05-10T12:44:22.269Z,64.55
2023-05-10T12:46:50.355Z,65.92
2023-05-10T12:49:19.975Z,66.75
2023-05-10T12:51:49.483Z,67.38
2023-05-10T12:54:17.575Z,67.73
2023-05-10T12:56:45.848Z,68.92
2023-05-10T12:59:13.938Z,69.00
2023-05-10T13:01:42.122Z,69.09
2023-05-10T13:04:10.410Z,69.74
2023-05-10T13:06:38.616Z,70.28
2023-05-10T13:09:08.086Z,70.25
2023-05-10T13:11:36.273Z,70.11
2023-05-10T13:14:05.245Z,69.61
2023-05-10T13:16:33.550Z,70.20
2023-05-10T13:19:01.751Z,71.11
2023-05-10T13:21:30.042Z,71.77
2023-05-10T13:23:58.137Z,70.76
2023-05-10T13:26:27.632Z,70.84
2023-05-10T13:28:56.594Z,71.28
2023-05-10T13:31:24.771Z,71.55
2023-05-10T13:33:52.981Z,71.47
2023-05-10T13:36:21.102Z,72.22
2023-05-10T13:38:49.202Z,72.66
2023-05-10T13:41:17.284Z,72.45
2023-05-10T13:43:46.855Z,72.51
2023-05-10T13:46:14.993Z,72.33
2023-05-10T13:48:43.105Z,72.62
2023-05-10T13:51:11.247Z,72.90
2023-05-10T13:53:39.401Z,73.42
2023-05-10T13:56:08.043Z,73.48
2023-05-10T13:58:36.791Z,73.16
2023-05-10T14:01:06.820Z,73.41
2023-05-10T14:03:35.033Z,72.63
2023-05-10T14:06:03.512Z,73.13
2023-05-10T14:08:31.625Z,73.08
2023-05-10T14:10:59.718Z,73.52
2023-05-10T14:13:27.819Z,73.56
2023-05-10T14:15:56.536Z,73.16
2023-05-10T14:18:26.816Z,73.81
2023-05-10T14:20:54.993Z,74.15
2023-05-10T14:23:25.241Z,74.15
2023-05-10T14:25:53.435Z,74.15
2023-05-10T14:28:21.895Z,74.55
2023-05-10T14:30:50.082Z,75.03
2023-05-10T14:33:19.054Z,75.06
2023-05-10T14:35:48.921Z,75.10
2023-05-10T14:38:17.089Z,75.24
2023-05-10T14:40:45.367Z,75.32
2023-05-10T14:43:13.495Z,76.00
2023-05-10T14:45:41.667Z,74.88
2023-05-10T14:48:13.157Z,73.98
2023-05-10T14:50:41.239Z,73.02
2023-05-10T14:53:10.841Z,72.78
2023-05-10T14:55:39.317Z,71.87
2023-05-10T14:58:07.454Z,71.54
2023-05-10T15:00:35.539Z,72.27
2023-05-10T15:03:04.566Z,72.23
2023-05-10T15:05:33.246Z,72.28
2023-05-10T15:08:02.024Z,71.40
2023-05-10T15:10:33.810Z,71.17
2023-05-10T15:13:02.503Z,71.53
2023-05-10T15:15:30.686Z,70.92
2023-05-10T15:17:58.972Z,70.04
2023-05-10T15:20:27.136Z,70.44
2023-05-10T15:22:55.268Z,70.68
2023-05-10T15:25:24.670Z,70.63
2023-05-10T15:27:54.147Z,70.94
2023-05-10T15:30:22.350Z,70.99
2023-05-10T15:32:50.429Z,71.33
2023-05-10T15:35:18.996Z,72.14
2023-05-10T15:37:49.144Z,71.82
2023-05-10T15:40:17.277Z,70.91
2023-05-10T15:42:45.460Z,71.43
2023-05-10T15:45:16.218Z,70.63
2023-05-10T15:47:45.256Z,69.67
2023-05-10T15:50:13.500Z,69.81
2023-05-10T15:52:42.278Z,69.43
2023-05-10T15:55:13.211Z,69.74
2023-05-10T15:57:42.635Z,70.63
2023-05-10T16:00:12.806Z,69.54
2023-05-10T16:02:42.802Z,69.80
2023-05-10T16:05:11.252Z,70.07
2023-05-10T16:07:40.195Z,70.61
2023-05-10T16:10:10.545Z,70.62
2023-05-10T16:12:39.020Z,70.01
2023-05-10T16:15:08.186Z,69.90
2023-05-10T16:17:37.355Z,70.49
2023-05-10T16:20:08.463Z,70.29
2023-05-10T16:22:36.906Z,70.35
2023-05-10T16:25:05.581Z,70.10
2023-05-10T16:27:33.713Z,69.86
2023-05-10T16:30:02.202Z,70.49
2023-05-10T16:32:30.422Z,69.85
2023-05-10T16:34:59.935Z,70.25
2023-05-10T16:37:29.677Z,70.25
2023-05-10T16:39:57.860Z,69.53
2023-05-10T16:42:26.134Z,68.65
2023-05-10T16:44:55.201Z,68.73
2023-05-10T16:47:23.360Z,69.08
2023-05-10T16:49:51.516Z,69.08
2023-05-10T16:52:19.579Z,68.90
2023-05-10T16:54:49.127Z,69.07
2023-05-10T16:57:17.365Z,69.57
2023-05-10T16:59:45.481Z,69.71
2023-05-10T17:02:13.674Z,70.00
2023-05-10T17:04:41.874Z,70.12
2023-05-10T17:07:10.459Z,69.96
2023-05-10T17:09:38.649Z,69.00
2023-05-10T17:12:08.226Z,68.81
2023-05-10T17:14:36.956Z,68.38
2023-05-10T17:17:05.109Z,68.34
2023-05-10T17:19:33.267Z,69.02
2023-05-10T17:22:01.404Z,68.87
2023-05-10T17:24:29.786Z,68.85
2023-05-10T17:26:58.435Z,68.54
2023-05-10T17:29:29.094Z,69.35
2023-05-10T17:31:57.378Z,69.15
2023-05-10T17:34:25.549Z,69.16
2023-05-10T17:36:53.718Z,69.60
2023-05-10T17:39:21.777Z,69.68
2023-05-10T17:41:49.884Z,70.24
2023-05-10T17:44:18.064Z,70.39
2023-05-10T17:46:47.651Z,70.29
2023-05-10T17:49:16.228Z,70.17
2023-05-10T17:51:44.638Z,70.56
2023-05-10T17:54:12.718Z,70.27
2023-05-10T17:56:40.781Z,70.20
2023-05-10T17:59:09.026Z,70.34
2023-05-10T18:01:37.217Z,70.76
2023-05-10T18:04:06.782Z,70.59
2023-05-10T18:06:37.361Z,70.40
2023-05-10T18:09:07.264Z,70.67
2023-05-10T18:11:36.184Z,70.49
2023-05-10T18:14:04.685Z,70.66
2023-05-10T18:16:32.835Z,71.04
2023-05-10T18:19:01.234Z,71.33
2023-05-10T18:21:31.322Z,71.48
2023-05-10T18:23:59.430Z,71.66
2023-05-10T18:26:27.784Z,72.41
2023-05-10T18:28:55.874Z,72.78
2023-05-10T18:31:24.167Z,73.92
2023-05-10T18:33:52.486Z,74.54
2023-05-10T18:36:21.364Z,75.40
2023-05-10T18:38:50.845Z,76.00
2023-05-10T18:41:19.330Z,76.52
2023-05-10T18:43:47.405Z,77.02
2023-05-10T18:46:15.893Z,77.62
2023-05-10T18:48:43.989Z,77.92
2023-05-10T18:51:12.495Z,78.80
2023-05-10T18:53:40.837Z,79.77
2023-05-10T18:56:10.368Z,80.46
2023-05-10T18:58:38.563Z,81.14
2023-05-10T19:01:06.922Z,81.38
2023-05-10T19:03:35.050Z,82.65
2023-05-10T19:06:03.182Z,83.35
2023-05-10T19:08:31.328Z,83.21
2023-05-10T19:10:59.446Z,83.50
2023-05-10T19:13:30.280Z,83.94
2023-05-10T19:16:04.948Z,84.53
2023-05-10T19:18:33.321Z,84.91
2023-05-10T19:21:04.498Z,85.26
2023-05-10T19:23:33.142Z,85.87
2023-05-10T19:26:01.504Z,85.73
2023-05-10T19:28:31.027Z,86.56
2023-05-10T19:30:59.124Z,86.75
2023-05-10T19:33:27.268Z,86.79
2023-05-10T19:35:56.252Z,87.09
2023-05-10T19:38:24.757Z,86.73
2023-05-10T19:40:58.054Z,87.13
2023-05-10T19:43:26.406Z,86.99
2023-05-10T19:45:56.206Z,87.60
2023-05-10T19:48:24.321Z,87.37
2023-05-10T19:50:52.440Z,87.99
2023-05-10T19:53:20.616Z,88.00
2023-05-10T19:55:48.840Z,87.91
2023-05-10T19:58:17.995Z,88.08
2023-05-10T20:00:46.165Z,88.77
2023-05-10T20:03:15.723Z,88.61
2023-05-10T20:05:43.841Z,88.88
2023-05-10T20:08:11.926Z,88.94
2023-05-10T20:10:40.072Z,89.27
2023-05-10T20:13:08.266Z,89.21
2023-05-10T20:15:36.373Z,88.93
2023-05-10T20:18:04.796Z,89.32
2023-05-10T20:20:34.412Z,89.27
2023-05-10T20:23:02.486Z,89.60
2023-05-10T20:25:30.584Z,89.63
2023-05-10T20:27:58.663Z,89.50
2023-05-10T20:30:26.802Z,89.57
2023-05-10T20:32:54.904Z,89.87
2023-05-10T20:35:23.106Z,89.66
2023-05-10T20:37:52.537Z,90.10
2023-05-10T20:40:20.638Z,89.87
2023-05-10T20:42:49.560Z,90.04
2023-05-10T20:45:17.805Z,89.97
2023-05-10T20:47:45.922Z,89.33
2023-05-10T20:50:14.053Z,89.58
2023-05-10T20:52:42.394Z,89.83
2023-05-10T20:55:12.747Z,89.48
2023-05-10T20:57:40.860Z,89.67
2023-05-10T21:00:10.465Z,89.30
2023-05-10T21:02:38.557Z,89.46
2023-05-10T21:05:07.509Z,89.36
2023-05-10T21:07:35.710Z,89.55
2023-05-10T21:10:04.187Z,89.30
2023-05-10T21:12:33.644Z,89.33
2023-05-10T21:15:01.751Z,89.17
2023-05-10T21:17:29.816Z,89.16
2023-05-10T21:19:57.899Z,89.20
2023-05-10T21:22:26.222Z,89.48
2023-05-10T21:24:54.312Z,89.51
2023-05-10T21:27:22.376Z,89.30
2023-05-10T21:29:52.168Z,89.25
2023-05-10T21:32:20.255Z,89.58
2023-05-10T21:34:48.451Z,89.53
2023-05-10T21:37:16.948Z,89.75
2023-05-10T21:39:45.067Z,89.59
2023-05-10T21:42:13.103Z,89.42
2023-05-10T21:44:41.188Z,89.55
2023-05-10T21:47:10.643Z,89.13
2023-05-10T21:49:38.805Z,89.36
2023-05-10T21:52:07.292Z,89.36
2023-05-10T21:54:37.270Z,89.69
2023-05-10T21:57:05.401Z,89.30
2023-05-10T21:59:33.527Z,89.43
2023-05-10T22:02:01.751Z,89.99
2023-05-10T22:04:31.222Z,89.70
2023-05-10T22:06:59.313Z,90.37
2023-05-10T22:09:27.512Z,90.37
2023-05-10T22:11:55.625Z,90.85
2023-05-10T22:14:24.010Z,90.68
2023-05-10T22:16:52.272Z,91.19
2023-05-10T22:19:20.605Z,91.41
2023-05-10T22:21:50.035Z,91.78
2023-05-10T22:24:18.431Z,91.81
2023-05-10T22:26:46.525Z,92.61
2023-05-10T22:29:14.590Z,92.64
2023-05-10T22:31:42.714Z,92.96
2023-05-10T22:34:10.826Z,92.63
2023-05-10T22:36:38.887Z,92.65
2023-05-10T22:39:08.371Z,92.88
2023-05-10T22:41:36.438Z,92.98
2023-05-10T22:44:05.001Z,92.96
2023-05-10T22:46:33.544Z,92.50
2023-05-10T22:49:01.829Z,92.98
2023-05-10T22:51:29.890Z,93.02
2023-05-10T22:53:57.939Z,92.73
2023-05-10T22:56:27.464Z,92.70
2023-05-10T22:58:55.962Z,92.47
2023-05-10T23:01:24.061Z,92.43
2023-05-10T23:03:52.343Z,92.42
2023-05-10T23:06:20.410Z,92.02
2023-05-10T23:08:48.461Z,92.31
2023-05-10T23:11:16.536Z,92.54
2023-05-10T23:13:45.990Z,92.51
2023-05-10T23:16:14.154Z,92.19
2023-05-10T23:18:42.306Z,92.03
2023-05-10T23:21:10.512Z,92.72
2023-05-10T23:23:38.598Z,92.72
2023-05-10T23:26:06.676Z,93.39
2023-05-10T23:28:34.715Z,93.45
2023-05-10T23:31:04.227Z,93.00
2023-05-10T23:33:32.257Z,92.89
2023-05-10T23:36:00.441Z,93.07
2023-05-10T23:38:28.486Z,92.90
2023-05-10T23:40:56.997Z,93.15
2023-05-10T23:43:25.446Z,92.93
2023-05-10T23:45:54.816Z,92.77
2023-05-10T23:48:24.565Z,93.22
2023-05-10T23:50:52.704Z,93.21
2023-05-10T23:53:20.948Z,93.30
2023-05-10T23:55:49.032Z,93.49
2023-05-10T23:58:17.301Z,92.87
